Time;durP1;ratioP1;P1;durP2;ratioP2;P2;SDS_P1;SDS_P2;PMS_P1;PMS_P2;Temp;Humidity;BMP_temperature;BMP_pressure;BME280_temperature;BME280_humidity;BME280_pressure;Samples;Min_cycle;Max_cycle;Signal;HPM_P1;HPM_P2
2022/08/07 00:00:58;;;;;;;1.67;1.30;;;19.40;57.00;;;;;;6099828;23;20755;-66
2022/08/07 00:03:27;;;;;;;1.33;1.23;;;19.40;57.20;;;;;;6100008;23;20790;-66
2022/08/07 00:05:54;;;;;;;1.30;1.20;;;19.40;57.90;;;;;;6091440;23;20547;-66
2022/08/07 00:08:22;;;;;;;2.10;1.90;;;19.40;57.60;;;;;;6107155;23;20518;-67
2022/08/07 00:10:49;;;;;;;2.40;1.30;;;19.30;57.30;;;;;;6113198;23;20445;-66
2022/08/07 00:13:19;;;;;;;2.77;1.30;;;19.20;57.40;;;;;;6088865;23;20450;-67
2022/08/07 00:15:48;;;;;;;1.17;1.07;;;19.20;57.80;;;;;;6095268;23;20527;-66
2022/08/07 00:18:16;;;;;;;1.43;1.30;;;19.20;57.60;;;;;;6115251;23;20467;-66
2022/08/07 00:20:43;;;;;;;2.17;1.00;;;19.10;57.60;;;;;;6111864;23;21021;-66
2022/08/07 00:23:10;;;;;;;1.20;1.10;;;19.00;58.10;;;;;;6110586;23;20465;-66
2022/08/07 00:25:37;;;;;;;1.70;1.37;;;19.00;58.10;;;;;;6103623;23;20510;-66
2022/08/07 00:28:04;;;;;;;2.50;1.20;;;19.00;58.40;;;;;;6100119;23;20438;-66
2022/08/07 00:30:31;;;;;;;3.10;1.20;;;19.00;58.70;;;;;;6117258;23;20796;-67
2022/08/07 00:33:01;;;;;;;1.20;1.10;;;18.90;58.80;;;;;;6096505;23;20499;-66
2022/08/07 00:35:29;;;;;;;1.50;1.00;;;18.90;59.00;;;;;;6109865;23;20548;-66
2022/08/07 00:37:56;;;;;;;1.20;1.10;;;18.90;59.00;;;;;;6111175;23;20437;-66
2022/08/07 00:40:23;;;;;;;1.20;1.10;;;18.90;59.00;;;;;;6116469;23;20547;-66
2022/08/07 00:42:50;;;;;;;2.30;1.20;;;18.90;59.20;;;;;;6117092;23;20525;-66
2022/08/07 00:45:17;;;;;;;1.90;1.57;;;18.90;59.20;;;;;;6105500;23;20492;-67
2022/08/07 00:47:44;;;;;;;1.77;1.20;;;18.90;59.20;;;;;;6093748;23;20435;-66
2022/08/07 00:50:13;;;;;;;1.20;1.10;;;18.90;59.60;;;;;;6101541;23;20446;-66
2022/08/07 00:52:40;;;;;;;0.90;0.90;;;18.80;59.70;;;;;;6100145;23;20847;-66
2022/08/07 00:55:07;;;;;;;1.67;1.10;;;18.80;59.70;;;;;;6098508;23;20481;-66
2022/08/07 00:57:35;;;;;;;1.40;1.30;;;18.80;60.10;;;;;;6103956;23;20870;-66
2022/08/07 01:00:04;;;;;;;1.30;1.20;;;18.70;60.40;;;;;;6115172;23;20476;-66
2022/08/07 01:02:31;;;;;;;2.03;1.30;;;18.70;60.60;;;;;;6108372;23;20929;-66
2022/08/07 01:04:59;;;;;;;1.90;1.30;;;18.80;60.90;;;;;;6112609;23;20474;-66
2022/08/07 01:07:28;;;;;;;1.30;1.20;;;18.60;61.20;;;;;;6112479;23;20446;-66
2022/08/07 01:09:55;;;;;;;2.13;0.93;;;18.50;61.10;;;;;;6094967;23;20442;-66
2022/08/07 01:12:23;;;;;;;1.10;1.00;;;18.50;61.40;;;;;;6098078;23;20477;-66
2022/08/07 01:14:50;;;;;;;1.20;1.10;;;18.40;61.70;;;;;;6114091;23;20469;-66
2022/08/07 01:17:17;;;;;;;2.13;1.30;;;18.40;61.80;;;;;;6110587;23;20510;-66
2022/08/07 01:19:45;;;;;;;1.87;1.00;;;18.40;62.00;;;;;;6111721;23;20536;-66
2022/08/07 01:22:14;;;;;;;5.47;1.47;;;18.40;62.20;;;;;;6093064;23;20481;-66
2022/08/07 01:24:41;;;;;;;2.57;1.20;;;18.40;62.70;;;;;;6111018;23;20520;-66
2022/08/07 01:27:09;;;;;;;3.20;1.30;;;18.40;62.90;;;;;;6110140;23;20491;-66
2022/08/07 01:29:36;;;;;;;1.67;1.10;;;18.30;62.90;;;;;;6116982;23;20491;-66
2022/08/07 01:32:04;;;;;;;1.47;1.13;;;18.30;63.40;;;;;;6114018;23;20503;-66
2022/08/07 01:34:32;;;;;;;1.20;1.00;;;18.30;63.70;;;;;;6114568;23;21063;-66
2022/08/07 01:37:00;;;;;;;1.00;0.90;;;18.20;63.70;;;;;;6092622;23;20944;-66
2022/08/07 01:39:29;;;;;;;1.33;1.23;;;18.20;63.90;;;;;;6116060;23;20647;-66
2022/08/07 01:41:57;;;;;;;2.03;1.20;;;18.20;64.10;;;;;;6112779;23;21008;-66
2022/08/07 01:44:24;;;;;;;1.50;1.07;;;18.10;64.20;;;;;;6113240;23;20450;-67
2022/08/07 01:46:52;;;;;;;4.30;1.10;;;18.20;64.70;;;;;;6100701;23;20492;-66
2022/08/07 01:49:19;;;;;;;1.40;1.10;;;18.10;64.80;;;;;;6099111;23;20446;-66
2022/08/07 01:51:48;;;;;;;1.20;1.10;;;18.00;64.80;;;;;;6097961;23;20438;-67
2022/08/07 01:54:15;;;;;;;1.67;1.37;;;18.00;64.90;;;;;;6096422;23;20985;-66
2022/08/07 01:56:48;;;;;;;1.30;1.10;;;18.00;65.40;;;;;;6095062;23;20462;-66
2022/08/07 01:59:23;;;;;;;1.33;0.90;;;18.00;65.70;;;;;;6111664;23;20438;-66
2022/08/07 02:01:56;;;;;;;1.47;1.20;;;17.90;65.80;;;;;;6091584;23;20501;-66
2022/08/07 02:04:27;;;;;;;2.60;1.07;;;17.90;65.90;;;;;;6091591;23;20461;-67
2022/08/07 02:06:57;;;;;;;1.17;1.07;;;17.80;66.40;;;;;;6090425;23;20449;-66
2022/08/07 02:09:26;;;;;;;1.30;1.10;;;17.80;66.40;;;;;;6090632;23;20464;-66
2022/08/07 02:11:56;;;;;;;1.20;1.10;;;17.80;66.80;;;;;;6112907;23;20434;-66
2022/08/07 02:14:24;;;;;;;1.13;0.93;;;17.80;67.20;;;;;;6089309;23;20493;-66
2022/08/07 02:16:54;;;;;;;2.00;1.00;;;17.80;67.20;;;;;;6111979;23;20947;-66
2022/08/07 02:19:22;;;;;;;1.30;1.00;;;17.70;67.40;;;;;;6118085;23;20484;-66
2022/08/07 02:21:51;;;;;;;1.47;1.00;;;17.80;67.30;;;;;;6101653;23;20931;-66
2022/08/07 02:24:18;;;;;;;1.67;1.10;;;17.80;67.50;;;;;;6088785;23;20505;-66
2022/08/07 02:26:47;;;;;;;1.10;1.00;;;17.80;67.50;;;;;;6091424;23;20818;-66
2022/08/07 02:29:16;;;;;;;1.43;1.27;;;17.80;67.90;;;;;;6111192;23;20449;-66
2022/08/07 02:31:44;;;;;;;1.23;1.13;;;17.80;68.00;;;;;;6114395;23;20556;-66
2022/08/07 02:34:12;;;;;;;2.17;1.03;;;17.80;68.40;;;;;;6098807;23;20531;-66
2022/08/07 02:36:40;;;;;;;0.97;0.87;;;17.80;68.10;;;;;;6093350;23;20427;-64
2022/08/07 02:39:09;;;;;;;1.23;1.13;;;17.80;68.20;;;;;;6089960;23;20437;-64
2022/08/07 02:41:36;;;;;;;1.73;1.13;;;17.80;68.30;;;;;;6094979;23;20558;-65
2022/08/07 02:44:04;;;;;;;1.43;1.20;;;17.80;68.30;;;;;;6105911;23;20461;-66
2022/08/07 02:46:34;;;;;;;1.50;1.30;;;17.70;68.40;;;;;;6097685;23;20470;-65
2022/08/07 02:49:02;;;;;;;3.40;1.50;;;17.70;69.00;;;;;;6110303;23;20473;-65
2022/08/07 02:51:32;;;;;;;1.83;1.33;;;17.70;69.20;;;;;;6102353;23;20504;-65
2022/08/07 02:54:01;;;;;;;2.20;1.20;;;17.60;69.30;;;;;;6106928;23;20433;-65
2022/08/07 02:56:31;;;;;;;1.23;1.13;;;17.60;69.60;;;;;;6088388;23;20492;-65
2022/08/07 02:59:02;;;;;;;2.07;1.13;;;17.60;69.80;;;;;;6090781;23;20520;-65
2022/08/07 03:01:30;;;;;;;1.20;1.10;;;17.50;69.90;;;;;;6091959;23;20461;-65
2022/08/07 03:03:59;;;;;;;1.10;1.00;;;17.50;70.00;;;;;;6095785;23;20478;-65
2022/08/07 03:06:28;;;;;;;1.10;1.00;;;17.50;70.30;;;;;;6106573;23;20449;-64
2022/08/07 03:08:55;;;;;;;1.20;1.10;;;17.40;70.80;;;;;;6115157;23;20492;-65
2022/08/07 03:11:23;;;;;;;1.20;1.07;;;17.30;71.00;;;;;;6102068;23;20439;-65
2022/08/07 03:13:51;;;;;;;2.23;1.40;;;17.30;71.50;;;;;;6094479;23;20470;-65
2022/08/07 03:16:18;;;;;;;2.40;1.17;;;17.20;71.90;;;;;;6109012;23;20438;-65
2022/08/07 03:18:46;;;;;;;1.60;1.10;;;17.20;72.20;;;;;;6098781;23;20434;-66
2022/08/07 03:21:15;;;;;;;1.43;1.03;;;17.10;72.60;;;;;;6090217;23;20984;-66
2022/08/07 03:23:43;;;;;;;1.40;1.00;;;17.20;72.80;;;;;;6103407;23;20442;-66
2022/08/07 03:26:12;;;;;;;1.97;1.23;;;17.10;73.10;;;;;;6111980;23;20483;-65
2022/08/07 03:28:42;;;;;;;3.63;1.40;;;17.00;73.50;;;;;;6092457;23;21221;-65
2022/08/07 03:31:19;;;;;;;1.10;1.00;;;17.00;73.90;;;;;;6115759;23;20449;-65
2022/08/07 03:33:48;;;;;;;1.30;1.20;;;16.90;74.30;;;;;;6098449;23;20952;-65
2022/08/07 03:36:18;;;;;;;2.77;1.20;;;16.80;75.10;;;;;;6097744;23;20852;-65
2022/08/07 03:38:48;;;;;;;1.20;1.10;;;16.90;75.20;;;;;;6090556;23;20516;-65
2022/08/07 03:41:16;;;;;;;2.47;1.20;;;16.80;75.20;;;;;;6090497;23;20503;-65
2022/08/07 03:43:45;;;;;;;1.53;1.27;;;16.80;75.80;;;;;;6098668;23;20443;-66
2022/08/07 03:46:12;;;;;;;1.43;1.20;;;16.80;76.20;;;;;;6092733;23;20443;-65
2022/08/07 03:48:40;;;;;;;1.43;1.20;;;16.80;76.60;;;;;;6094110;23;20496;-65
2022/08/07 03:51:08;;;;;;;1.57;1.40;;;16.80;76.70;;;;;;6088639;23;20445;-65
2022/08/07 03:53:37;;;;;;;1.33;1.07;;;16.80;76.60;;;;;;6099575;23;20446;-65
2022/08/07 03:56:06;;;;;;;3.23;1.33;;;16.80;77.30;;;;;;6109532;23;20964;-65
2022/08/07 03:58:33;;;;;;;2.33;1.27;;;16.80;77.70;;;;;;6097284;23;20568;-65
2022/08/07 04:01:03;;;;;;;1.33;1.20;;;16.80;78.20;;;;;;6102177;23;20967;-66
2022/08/07 04:03:31;;;;;;;1.50;1.40;;;16.80;78.30;;;;;;6096161;23;20526;-66
2022/08/07 04:05:58;;;;;;;1.40;1.30;;;16.80;78.90;;;;;;6098620;23;21000;-65
2022/08/07 04:08:25;;;;;;;1.47;1.37;;;16.80;79.50;;;;;;6094798;23;20476;-65
2022/08/07 04:10:54;;;;;;;1.30;1.20;;;16.70;79.90;;;;;;6091916;23;20596;-65
2022/08/07 04:13:22;;;;;;;1.37;1.27;;;16.70;80.30;;;;;;6105360;23;20451;-65
2022/08/07 04:15:49;;;;;;;1.37;1.27;;;16.80;80.50;;;;;;6093142;23;20454;-65
2022/08/07 04:18:17;;;;;;;1.93;1.43;;;16.70;80.80;;;;;;6089150;23;21124;-65
2022/08/07 04:20:44;;;;;;;1.70;1.30;;;16.70;80.90;;;;;;6096630;23;20434;-66
2022/08/07 04:23:12;;;;;;;1.77;1.30;;;16.70;81.60;;;;;;6103537;23;20505;-65
2022/08/07 04:25:41;;;;;;;1.87;1.10;;;16.70;82.00;;;;;;6099168;23;20516;-65
2022/08/07 04:28:10;;;;;;;1.27;1.17;;;16.60;82.50;;;;;;6095082;23;20446;-66
2022/08/07 04:30:39;;;;;;;3.60;1.30;;;16.70;82.50;;;;;;6117094;23;20859;-66
2022/08/07 04:33:08;;;;;;;1.67;1.30;;;16.70;82.70;;;;;;6108693;23;20470;-65
2022/08/07 04:35:36;;;;;;;1.30;1.10;;;16.90;83.30;;;;;;6088641;23;20458;-66
2022/08/07 04:38:07;;;;;;;1.80;1.40;;;16.80;83.10;;;;;;6089631;23;20460;-65
2022/08/07 04:40:35;;;;;;;2.23;1.50;;;16.80;83.30;;;;;;6092291;23;20438;-65
2022/08/07 04:43:02;;;;;;;2.13;1.30;;;16.80;83.30;;;;;;6105502;23;20470;-65
2022/08/07 04:45:38;;;;;;;1.40;1.30;;;16.90;83.50;;;;;;6097244;23;20588;-65
2022/08/07 04:48:12;;;;;;;1.67;1.40;;;16.90;83.90;;;;;;6097516;23;20461;-65
2022/08/07 04:50:56;;;;;;;1.60;1.50;;;16.90;84.30;;;;;;6089214;23;20529;-65
2022/08/07 04:53:32;;;;;;;1.50;1.40;;;16.90;84.60;;;;;;6097009;23;20499;-66
2022/08/07 04:56:05;;;;;;;2.03;1.50;;;17.00;85.10;;;;;;6094921;23;20514;-65
2022/08/07 04:58:39;;;;;;;1.50;1.40;;;17.00;85.60;;;;;;6103177;23;20504;-65
2022/08/07 05:01:19;;;;;;;1.57;1.47;;;17.00;86.10;;;;;;6092062;23;20968;-65
2022/08/07 05:03:52;;;;;;;1.70;1.60;;;17.10;86.60;;;;;;6100993;23;20449;-65
2022/08/07 05:06:25;;;;;;;1.70;1.60;;;17.20;87.40;;;;;;6109263;23;20445;-67
2022/08/07 05:09:01;;;;;;;1.80;1.70;;;17.20;87.90;;;;;;6112527;23;20905;-65
2022/08/07 05:11:31;;;;;;;2.37;1.57;;;17.30;88.80;;;;;;6096764;23;20430;-65
2022/08/07 05:14:02;;;;;;;1.77;1.67;;;17.30;89.10;;;;;;6105352;23;20457;-65
2022/08/07 05:16:34;;;;;;;2.30;1.80;;;17.30;89.70;;;;;;6101553;23;20989;-65
2022/08/07 05:19:07;;;;;;;1.77;1.67;;;17.40;89.60;;;;;;6094465;23;20450;-65
2022/08/07 05:21:35;;;;;;;2.07;1.97;;;17.40;89.40;;;;;;6099597;23;20439;-65
2022/08/07 05:24:06;;;;;;;3.33;2.27;;;17.60;90.00;;;;;;6096907;23;20549;-65
2022/08/07 05:26:34;;;;;;;1.80;1.70;;;17.60;90.00;;;;;;6092130;23;20438;-65
2022/08/07 05:29:04;;;;;;;2.87;2.20;;;17.60;90.10;;;;;;6096172;23;20469;-66
2022/08/07 05:31:37;;;;;;;2.70;2.50;;;17.70;90.20;;;;;;6093086;23;20434;-65
2022/08/07 05:34:07;;;;;;;2.77;2.30;;;17.70;90.50;;;;;;6098862;23;20536;-66
2022/08/07 05:36:36;;;;;;;2.83;2.40;;;17.80;90.60;;;;;;6090309;23;20484;-66
2022/08/07 05:39:05;;;;;;;2.90;2.70;;;17.70;90.80;;;;;;6095480;23;20492;-66
2022/08/07 05:41:32;;;;;;;2.03;1.93;;;17.70;90.90;;;;;;6094646;23;20825;-66
2022/08/07 05:44:00;;;;;;;2.27;2.07;;;17.70;91.30;;;;;;6091713;23;20957;-67
2022/08/07 05:46:27;;;;;;;2.47;2.13;;;17.80;91.60;;;;;;6092334;23;20446;-67
2022/08/07 05:48:57;;;;;;;2.17;2.07;;;17.90;91.30;;;;;;6094124;23;20513;-66
2022/08/07 05:51:24;;;;;;;2.77;2.30;;;18.00;91.80;;;;;;6091694;23;20998;-66
2022/08/07 05:53:51;;;;;;;2.67;2.43;;;18.10;91.60;;;;;;6099749;23;20466;-66
2022/08/07 05:56:20;;;;;;;2.40;2.20;;;18.20;92.20;;;;;;6096835;23;20449;-66
2022/08/07 05:58:49;;;;;;;2.77;2.53;;;18.20;92.30;;;;;;6111510;23;20446;-66
2022/08/07 06:01:19;;;;;;;4.07;3.30;;;18.20;92.60;;;;;;6091534;23;20434;-66
2022/08/07 06:03:51;;;;;;;3.43;3.13;;;18.20;93.00;;;;;;6100034;23;20568;-66
2022/08/07 06:06:20;;;;;;;3.30;3.10;;;18.20;93.50;;;;;;6090373;23;20496;-66
2022/08/07 06:08:48;;;;;;;2.90;2.70;;;18.20;93.60;;;;;;6099949;23;21025;-66
2022/08/07 06:11:17;;;;;;;3.80;3.50;;;18.20;94.00;;;;;;6098359;23;20993;-66
2022/08/07 06:13:43;;;;;;;3.23;2.97;;;18.20;94.50;;;;;;6093510;23;20512;-66
2022/08/07 06:16:12;;;;;;;3.60;3.30;;;18.30;95.00;;;;;;6089944;23;20450;-66
2022/08/07 06:18:40;;;;;;;3.60;3.40;;;18.40;95.30;;;;;;6104086;23;20937;-66
2022/08/07 06:21:08;;;;;;;4.13;3.83;;;18.50;95.50;;;;;;6094723;23;20514;-66
2022/08/07 06:23:37;;;;;;;4.03;3.57;;;18.40;96.70;;;;;;6105696;23;20976;-66
2022/08/07 06:26:06;;;;;;;3.93;3.73;;;18.30;97.00;;;;;;6091142;23;20447;-66
2022/08/07 06:28:33;;;;;;;4.10;3.80;;;18.30;97.30;;;;;;6102340;23;20455;-66
2022/08/07 06:31:00;;;;;;;4.03;3.73;;;18.40;97.60;;;;;;6105628;23;20955;-67
2022/08/07 06:33:28;;;;;;;3.60;3.30;;;18.60;97.90;;;;;;6097475;23;20439;-66
2022/08/07 06:35:55;;;;;;;3.27;3.07;;;18.60;97.90;;;;;;6092591;23;20418;-66
2022/08/07 06:38:22;;;;;;;2.73;2.53;;;18.70;98.20;;;;;;6092521;23;20933;-64
2022/08/07 06:40:54;;;;;;;3.70;3.40;;;18.90;98.20;;;;;;6095415;23;20430;-65
2022/08/07 06:43:23;;;;;;;3.30;3.10;;;19.10;98.40;;;;;;6097618;23;20595;-65
2022/08/07 06:45:50;;;;;;;3.47;3.17;;;19.20;98.30;;;;;;6101551;23;20446;-65
2022/08/07 06:48:17;;;;;;;3.47;3.20;;;19.40;98.30;;;;;;6100873;23;20439;-65
2022/08/07 06:50:46;;;;;;;3.67;3.37;;;19.60;98.30;;;;;;6095905;23;20438;-64
2022/08/07 06:53:14;;;;;;;3.93;3.60;;;19.80;98.10;;;;;;6096302;23;20530;-64
2022/08/07 06:55:42;;;;;;;3.17;2.97;;;19.90;97.80;;;;;;6094061;23;20466;-65
2022/08/07 06:58:13;;;;;;;3.67;3.40;;;20.00;97.70;;;;;;6092565;23;20529;-66
2022/08/07 07:00:42;;;;;;;3.77;3.47;;;20.20;98.00;;;;;;6108188;23;21113;-65
2022/08/07 07:03:10;;;;;;;3.27;3.07;;;20.40;97.60;;;;;;6095133;23;20480;-65
2022/08/07 07:05:37;;;;;;;3.60;3.30;;;20.70;97.40;;;;;;6092620;23;20458;-67
2022/08/07 07:08:07;;;;;;;3.63;3.33;;;21.00;97.00;;;;;;6093521;23;20444;-66
2022/08/07 07:10:35;;;;;;;3.57;3.27;;;21.10;96.50;;;;;;6102828;23;20428;-66
2022/08/07 07:13:12;;;;;;;3.43;3.13;;;21.20;96.60;;;;;;6108990;23;20450;-65
2022/08/07 07:15:45;;;;;;;3.43;3.13;;;21.50;96.50;;;;;;6101440;23;20468;-66
2022/08/07 07:18:18;;;;;;;4.10;3.73;;;21.80;96.40;;;;;;6093230;23;20453;-66
2022/08/07 07:20:50;;;;;;;2.90;2.70;;;22.10;95.20;;;;;;6089897;23;20473;-65
2022/08/07 07:23:18;;;;;;;3.40;3.20;;;22.20;95.40;;;;;;6090971;23;20467;-66
2022/08/07 07:25:48;;;;;;;3.23;3.00;;;22.50;94.80;;;;;;6100194;23;20444;-66
2022/08/07 07:28:21;;;;;;;3.23;3.03;;;22.50;94.40;;;;;;6104990;23;20471;-66
2022/08/07 07:30:55;;;;;;;3.40;3.17;;;22.80;94.40;;;;;;6118674;23;20433;-65
2022/08/07 07:33:23;;;;;;;3.20;3.00;;;23.20;94.00;;;;;;6090246;23;20988;-65
2022/08/07 07:35:52;;;;;;;4.73;2.70;;;23.50;93.10;;;;;;6094489;23;20470;-65
2022/08/07 07:38:21;;;;;;;3.10;2.90;;;23.70;92.00;;;;;;6091861;23;20433;-67
2022/08/07 07:40:50;;;;;;;2.90;2.67;;;23.90;92.10;;;;;;6097076;23;20430;-66
2022/08/07 07:43:19;;;;;;;3.13;2.93;;;24.20;91.90;;;;;;6091235;23;20475;-67
2022/08/07 07:45:50;;;;;;;2.80;2.60;;;24.30;91.10;;;;;;6106510;23;20505;-65
2022/08/07 07:48:21;;;;;;;3.47;3.17;;;24.30;90.50;;;;;;6097324;23;20464;-68
2022/08/07 07:50:49;;;;;;;2.87;2.67;;;24.30;91.20;;;;;;6090484;23;20436;-65
2022/08/07 07:53:20;;;;;;;2.90;2.60;;;24.40;91.20;;;;;;6090183;23;20490;-65
2022/08/07 07:55:48;;;;;;;3.13;2.83;;;24.50;90.40;;;;;;6097953;23;20996;-68
2022/08/07 07:58:15;;;;;;;2.77;2.53;;;24.60;90.20;;;;;;6115333;23;20437;-65
2022/08/07 08:00:44;;;;;;;2.60;2.40;;;24.70;89.10;;;;;;6118062;23;20599;-69
2022/08/07 08:03:15;;;;;;;2.83;2.30;;;24.50;89.00;;;;;;6097001;23;21006;-68
2022/08/07 08:05:43;;;;;;;2.87;2.20;;;24.50;86.40;;;;;;6090490;23;20518;-70
2022/08/07 08:08:12;;;;;;;2.33;2.07;;;24.70;87.00;;;;;;6094816;23;20435;-67
2022/08/07 08:10:40;;;;;;;2.30;2.07;;;25.10;84.10;;;;;;6099271;23;20445;-67
2022/08/07 08:13:09;;;;;;;1.60;1.50;;;25.40;80.70;;;;;;6097933;23;20841;-66
2022/08/07 08:15:40;;;;;;;2.07;1.97;;;25.50;76.40;;;;;;6104814;23;20788;-65
2022/08/07 08:18:09;;;;;;;2.53;2.33;;;25.50;81.20;;;;;;6097704;23;20438;-73
2022/08/07 08:20:39;;;;;;;3.23;2.10;;;25.30;81.80;;;;;;6093730;23;20458;-73
2022/08/07 08:28:52;;;;;;;1.73;1.23;;;25.70;71.40;;;;;;6007406;23;20441;-76
2022/08/07 08:31:23;;;;;;;1.57;1.30;;;25.80;69.90;;;;;;6061287;23;20442;-75
2022/08/07 08:33:53;;;;;;;1.10;1.03;;;26.00;69.10;;;;;;6088779;23;20472;-75
2022/08/07 08:36:26;;;;;;;2.43;1.30;;;26.20;67.00;;;;;;6088482;23;20556;-75
2022/08/07 08:38:55;;;;;;;1.60;1.50;;;26.10;64.10;;;;;;6092100;23;20870;-76
2022/08/07 08:41:26;;;;;;;1.00;0.90;;;26.00;64.60;;;;;;6083787;23;20452;-76
2022/08/07 08:44:01;;;;;;;1.53;1.10;;;25.80;65.10;;;;;;6088233;23;20520;-75
2022/08/07 08:46:42;;;;;;;1.43;1.20;;;25.80;65.70;;;;;;6083158;23;20434;-75
2022/08/07 08:49:18;;;;;;;1.63;1.10;;;26.30;60.90;;;;;;6095441;23;20444;-76
2022/08/07 08:51:57;;;;;;;1.23;1.10;;;26.50;60.60;;;;;;6088964;23;20440;-76
2022/08/07 08:54:30;;;;;;;1.10;1.00;;;27.00;60.00;;;;;;6088253;23;20462;-79
2022/08/07 08:57:03;;;;;;;1.40;1.10;;;27.60;59.40;;;;;;6099548;23;20475;-76
2022/08/07 08:59:39;;;;;;;1.23;1.03;;;27.80;57.30;;;;;;6096550;23;20443;-74
2022/08/07 09:02:12;;;;;;;1.50;1.10;;;27.70;57.00;;;;;;6095917;23;20840;-75
2022/08/07 09:04:46;;;;;;;1.20;1.10;;;27.70;58.30;;;;;;6093261;23;20474;-75
2022/08/07 09:07:19;;;;;;;1.43;1.13;;;27.80;56.40;;;;;;6091555;23;20438;-75
2022/08/07 09:09:58;;;;;;;1.30;1.20;;;27.80;57.90;;;;;;6097928;23;20429;-75
2022/08/07 09:12:50;;;;;;;1.60;1.50;;;28.20;56.90;;;;;;6105726;23;20465;-75
2022/08/07 09:15:43;;;;;;;1.30;0.97;;;28.50;55.50;;;;;;6097310;23;20500;-75
2022/08/07 09:18:21;;;;;;;1.20;1.10;;;28.40;54.20;;;;;;6089056;23;20438;-75
2022/08/07 09:20:57;;;;;;;1.13;1.03;;;27.90;54.10;;;;;;6099898;23;20483;-76
2022/08/07 09:23:33;;;;;;;1.40;1.00;;;27.70;55.30;;;;;;6104196;23;20543;-76
2022/08/07 09:26:16;;;;;;;1.17;0.97;;;28.20;55.10;;;;;;6092534;23;20444;-76
2022/08/07 09:28:46;;;;;;;1.77;1.00;;;28.30;55.30;;;;;;6094042;23;20513;-76
2022/08/07 09:31:20;;;;;;;1.63;1.10;;;28.60;54.00;;;;;;6093895;23;20438;-75
2022/08/07 09:34:14;;;;;;;2.60;1.10;;;28.80;52.80;;;;;;6109320;23;20526;-76
2022/08/07 09:36:48;;;;;;;1.20;1.10;;;28.80;53.50;;;;;;6097817;23;20464;-75
2022/08/07 09:39:27;;;;;;;1.83;1.10;;;28.90;53.70;;;;;;6090326;23;20454;-76
2022/08/07 09:42:02;;;;;;;1.50;1.23;;;29.00;53.30;;;;;;6087617;23;20496;-76
2022/08/07 09:44:41;;;;;;;1.27;0.93;;;29.40;52.70;;;;;;6093236;23;20477;-77
2022/08/07 09:47:15;;;;;;;1.10;1.00;;;29.80;52.00;;;;;;6094099;23;20495;-76
2022/08/07 09:49:53;;;;;;;1.33;0.97;;;29.60;51.40;;;;;;6100052;23;20499;-76
2022/08/07 09:52:26;;;;;;;2.00;1.20;;;29.60;50.20;;;;;;6093379;23;20436;-75
2022/08/07 09:55:01;;;;;;;1.00;0.90;;;29.50;48.40;;;;;;6094949;23;20543;-76
2022/08/07 09:58:04;;;;;;;1.90;0.90;;;29.30;49.70;;;;;;6096674;23;20453;-79
2022/08/07 10:00:43;;;;;;;1.00;0.90;;;29.30;49.10;;;;;;6067686;23;20821;-77
2022/08/07 10:03:29;;;;;;;1.93;1.00;;;29.10;50.40;;;;;;6091443;23;20434;-76
2022/08/07 10:06:20;;;;;;;1.27;1.00;;;28.70;50.20;;;;;;6096843;23;20434;-78
2022/08/07 10:09:16;;;;;;;1.10;1.00;;;28.80;49.90;;;;;;6097310;23;20480;-77
2022/08/07 10:11:59;;;;;;;3.20;1.10;;;28.90;49.20;;;;;;6062188;23;20443;-76
2022/08/07 10:14:54;;;;;;;1.30;0.90;;;29.20;48.90;;;;;;6097615;23;20790;-75
2022/08/07 10:17:42;;;;;;;2.00;1.03;;;29.50;49.20;;;;;;6084088;23;20437;-75
2022/08/07 10:20:19;;;;;;;1.83;0.83;;;29.80;47.30;;;;;;6096803;23;20488;-77
2022/08/07 10:23:09;;;;;;;1.23;0.90;;;29.50;48.80;;;;;;6097019;23;20522;-78
2022/08/07 10:25:48;;;;;;;0.80;0.70;;;29.80;47.80;;;;;;6097117;23;20449;-77
2022/08/07 10:28:39;;;;;;;0.90;0.80;;;30.40;46.70;;;;;;6101045;23;20441;-77
2022/08/07 10:31:22;;;;;;;0.80;0.80;;;30.70;46.10;;;;;;6094704;23;20473;-77
2022/08/07 10:34:13;;;;;;;1.30;0.93;;;31.40;45.60;;;;;;6091909;23;20501;-77
2022/08/07 10:36:51;;;;;;;2.10;0.90;;;31.60;43.50;;;;;;6092273;23;20535;-77
2022/08/07 10:39:32;;;;;;;1.10;1.00;;;31.20;44.10;;;;;;6098678;23;20475;-76
2022/08/07 10:42:11;;;;;;;1.37;1.00;;;30.50;44.00;;;;;;6091309;23;20438;-75
2022/08/07 10:44:47;;;;;;;1.00;0.90;;;29.80;43.80;;;;;;6088328;23;20573;-76
2022/08/07 10:47:23;;;;;;;1.57;0.90;;;29.50;44.30;;;;;;6091503;23;20442;-76
2022/08/07 10:49:58;;;;;;;1.90;1.00;;;29.20;44.40;;;;;;6097354;23;20457;-76
2022/08/07 10:52:36;;;;;;;1.53;1.00;;;29.20;44.00;;;;;;6090566;23;20930;-76
2022/08/07 10:55:11;;;;;;;0.93;0.80;;;29.30;44.10;;;;;;6108386;23;20478;-76
2022/08/07 10:57:45;;;;;;;1.27;0.83;;;29.50;43.80;;;;;;6087397;23;20469;-74
2022/08/07 11:00:17;;;;;;;2.00;1.10;;;29.70;43.60;;;;;;6103307;23;20438;-77
2022/08/07 11:03:03;;;;;;;2.20;1.23;;;30.00;44.00;;;;;;6099948;23;20529;-79
2022/08/07 11:05:36;;;;;;;1.20;0.90;;;30.30;43.90;;;;;;6095692;23;20508;-78
2022/08/07 11:08:12;;;;;;;1.57;0.90;;;30.40;43.90;;;;;;6091085;23;21135;-78
2022/08/07 11:10:45;;;;;;;1.73;1.00;;;30.10;43.20;;;;;;6088991;23;20450;-80
2022/08/07 11:13:18;;;;;;;1.20;0.93;;;30.00;43.60;;;;;;6091380;23;21073;-77
2022/08/07 11:15:50;;;;;;;1.40;1.10;;;30.20;43.80;;;;;;6099704;23;20454;-78
2022/08/07 11:18:21;;;;;;;3.23;1.00;;;30.70;43.30;;;;;;6099239;23;20445;-78
2022/08/07 11:20:56;;;;;;;0.80;0.80;;;30.90;41.90;;;;;;6090199;23;20554;-78
2022/08/07 11:23:32;;;;;;;1.90;0.90;;;30.90;42.20;;;;;;6097900;23;20460;-75
2022/08/07 11:26:08;;;;;;;1.00;0.90;;;30.50;42.20;;;;;;6096723;23;20446;-76
2022/08/07 11:28:40;;;;;;;1.50;1.00;;;30.50;42.90;;;;;;6090418;23;21357;-76
2022/08/07 11:31:17;;;;;;;1.10;0.77;;;30.30;43.10;;;;;;6092629;23;20438;-76
2022/08/07 11:33:49;;;;;;;1.20;0.80;;;30.30;43.70;;;;;;6092074;23;20474;-77
2022/08/07 11:36:36;;;;;;;1.10;0.90;;;30.40;42.60;;;;;;6095096;23;20472;-76
2022/08/07 11:39:15;;;;;;;2.90;0.90;;;30.70;42.50;;;;;;6100990;23;20442;-77
2022/08/07 11:41:49;;;;;;;1.83;0.87;;;31.30;42.30;;;;;;6097979;23;21006;-77
2022/08/07 11:44:27;;;;;;;1.00;0.90;;;31.90;41.60;;;;;;6097508;23;20540;-77
2022/08/07 11:47:08;;;;;;;1.43;0.83;;;32.40;40.80;;;;;;6107121;23;20722;-76
2022/08/07 11:50:02;;;;;;;1.70;1.00;;;32.60;40.70;;;;;;6110148;23;20450;-76
2022/08/07 11:52:54;;;;;;;1.57;1.30;;;32.50;40.30;;;;;;6096807;23;20438;-76
2022/08/07 11:55:34;;;;;;;1.40;1.00;;;32.40;41.50;;;;;;6091312;23;20495;-76
2022/08/07 11:58:10;;;;;;;1.47;0.90;;;32.60;41.30;;;;;;6091330;23;20500;-77
2022/08/07 12:00:48;;;;;;;1.00;0.90;;;33.00;41.20;;;;;;6093605;23;20446;-76
2022/08/07 12:03:42;;;;;;;1.00;0.90;;;32.80;40.30;;;;;;6092132;23;20573;-77
2022/08/07 12:06:24;;;;;;;1.00;0.90;;;33.10;40.00;;;;;;6088766;23;20825;-76
2022/08/07 12:08:58;;;;;;;1.40;1.00;;;33.10;40.60;;;;;;6088431;23;20470;-77
2022/08/07 12:11:33;;;;;;;1.50;1.10;;;33.40;40.40;;;;;;6093218;23;20435;-77
2022/08/07 12:14:07;;;;;;;1.00;0.90;;;33.70;39.50;;;;;;6099235;23;20457;-75
2022/08/07 12:16:36;;;;;;;1.10;1.00;;;33.50;39.30;;;;;;6094979;23;20433;-77
2022/08/07 12:19:13;;;;;;;0.80;0.77;;;33.20;38.50;;;;;;6090849;23;20533;-76
2022/08/07 12:21:49;;;;;;;1.30;1.20;;;32.60;39.30;;;;;;6093355;23;20440;-72
2022/08/07 12:24:22;;;;;;;1.37;1.03;;;32.70;39.70;;;;;;6096192;23;20484;-72
2022/08/07 12:26:53;;;;;;;1.20;0.87;;;32.70;39.40;;;;;;6096596;23;20489;-78
2022/08/07 12:29:28;;;;;;;1.37;0.97;;;32.60;39.80;;;;;;6102568;23;21199;-78
2022/08/07 12:32:02;;;;;;;1.07;0.97;;;32.40;39.70;;;;;;6098672;23;20460;-79
2022/08/07 12:34:35;;;;;;;1.37;1.27;;;32.80;40.60;;;;;;6102963;23;20458;-78
2022/08/07 12:37:03;;;;;;;1.00;0.90;;;33.10;40.00;;;;;;6091259;23;20439;-77
2022/08/07 12:39:32;;;;;;;1.20;1.10;;;33.60;40.00;;;;;;6096119;23;20450;-76
2022/08/07 12:42:00;;;;;;;1.10;1.00;;;34.00;39.70;;;;;;6091647;23;20512;-77
2022/08/07 16:10:11;;;;;;;1.27;1.10;;;32.80;38.10;;;;;;6114809;23;20632;-73
2022/08/07 16:12:51;;;;;;;3.07;1.20;;;32.60;37.50;;;;;;6107793;23;20514;-75
2022/08/07 16:15:34;;;;;;;1.10;1.00;;;32.50;38.20;;;;;;6094936;23;20445;-74
2022/08/07 16:18:09;;;;;;;1.37;1.27;;;32.80;37.40;;;;;;6107636;23;20448;-73
2022/08/07 16:20:45;;;;;;;1.40;1.13;;;32.60;38.40;;;;;;6094960;23;20445;-73
2022/08/07 16:23:24;;;;;;;1.00;0.90;;;32.50;37.80;;;;;;6110128;23;20499;-73
2022/08/07 16:26:07;;;;;;;1.27;1.10;;;32.10;38.40;;;;;;6102147;23;20459;-74
2022/08/07 16:28:48;;;;;;;1.27;1.07;;;31.50;38.40;;;;;;6127985;23;20467;-73
2022/08/07 16:31:26;;;;;;;1.40;1.30;;;31.00;39.10;;;;;;6127655;23;20417;-74
2022/08/07 16:34:00;;;;;;;1.33;1.23;;;30.50;39.60;;;;;;6117638;23;20508;-74
2022/08/07 16:36:43;;;;;;;1.27;1.03;;;29.80;40.20;;;;;;6097612;23;20445;-74
2022/08/07 16:39:28;;;;;;;1.40;1.27;;;29.10;40.60;;;;;;6098102;23;20817;-74
2022/08/07 16:42:17;;;;;;;2.03;1.40;;;28.80;41.90;;;;;;6114906;23;20436;-74
2022/08/07 16:45:11;;;;;;;1.23;1.13;;;28.60;42.30;;;;;;6099467;23;20483;-74